createdAt,value
2024-01-10T00:00:11.843Z,29.75
2024-01-10T00:05:14.424Z,30.02
2024-01-10T00:10:17.226Z,30.52
2024-01-10T00:15:19.393Z,31.35
2024-01-10T00:20:21.804Z,33.47
2024-01-10T00:25:23.484Z,31.48
2024-01-10T00:30:26.882Z,31.35
2024-01-10T00:35:28.778Z,29.23
2024-01-10T00:40:30.710Z,30.30
2024-01-10T00:45:33.463Z,29.92
2024-01-10T00:50:35.556Z,30.65
2024-01-10T00:55:37.587Z,35.28
2024-01-10T01:00:39.503Z,29.80
2024-01-10T01:05:42.481Z,35.92
2024-01-10T01:10:45.048Z,31.77
2024-01-10T01:15:47.157Z,32.35
2024-01-10T01:20:51.058Z,37.00
2024-01-10T01:25:52.960Z,29.92
2024-01-10T01:30:54.892Z,28.13
2024-01-10T01:35:56.754Z,32.22
2024-01-10T01:46:00.603Z,32.60
2024-01-10T01:51:06.925Z,29.95
2024-01-10T01:56:10.020Z,34.42
2024-01-10T02:01:13.124Z,32.78
2024-01-10T02:06:15.308Z,29.73
2024-01-10T02:11:17.634Z,32.33
2024-01-10T02:16:19.821Z,32.33
2024-01-10T02:21:22.964Z,29.95
2024-01-10T02:26:24.826Z,29.90
2024-01-10T02:36:30.702Z,34.10
2024-01-10T02:46:34.871Z,32.58
2024-01-10T02:51:36.622Z,31.35
2024-01-10T02:56:38.495Z,31.70
2024-01-10T03:01:42.589Z,26.50
2024-01-10T03:06:44.632Z,30.67
2024-01-10T03:11:46.853Z,28.65
2024-01-10T03:21:50.661Z,30.20
2024-01-10T03:26:52.526Z,27.77
2024-01-10T03:31:54.467Z,32.67
2024-01-10T03:36:56.258Z,32.88
2024-01-10T03:41:58.624Z,26.83
2024-01-10T03:47:00.504Z,27.25
2024-01-10T03:52:02.226Z,30.13
2024-01-10T03:57:04.537Z,33.42
2024-01-10T04:02:06.617Z,28.77
2024-01-10T04:07:09.701Z,30.50
2024-01-10T04:12:11.705Z,32.65
2024-01-10T04:17:13.610Z,31.95
2024-01-10T04:22:15.464Z,30.08
2024-01-10T04:27:17.407Z,30.65
2024-01-10T04:32:19.251Z,32.72
2024-01-10T04:37:21.501Z,31.15
2024-01-10T04:42:23.272Z,29.73
2024-01-10T04:47:25.200Z,26.95
2024-01-10T04:52:26.943Z,30.42
2024-01-10T04:57:28.682Z,28.73
2024-01-10T05:02:30.629Z,32.53
2024-01-10T05:07:32.694Z,34.10
2024-01-10T05:12:34.730Z,31.60
2024-01-10T05:17:37.613Z,31.45
2024-01-10T05:22:39.383Z,29.73
2024-01-10T05:27:41.093Z,32.83
2024-01-10T05:32:45.045Z,29.27
2024-01-10T05:37:47.257Z,29.65
2024-01-10T05:42:50.375Z,32.28
2024-01-10T05:47:52.991Z,26.70
2024-01-10T05:52:54.931Z,31.58
2024-01-10T06:02:58.611Z,32.13
2024-01-10T06:08:00.592Z,30.70
2024-01-10T06:13:04.691Z,30.83
2024-01-10T06:18:06.525Z,35.47
2024-01-10T06:28:10.674Z,33.22
2024-01-10T06:33:12.407Z,33.38
2024-01-10T06:38:14.277Z,44.38
2024-01-10T06:43:16.480Z,33.45
2024-01-10T06:48:20.183Z,36.35
2024-01-10T06:53:22.890Z,34.08
2024-01-10T06:58:24.635Z,38.83
2024-01-10T07:03:26.555Z,35.60
2024-01-10T07:08:28.516Z,36.13
2024-01-10T07:13:30.327Z,34.08
2024-01-10T07:18:32.299Z,36.80
2024-01-10T07:23:36.072Z,40.22
2024-01-10T07:28:39.271Z,39.28
2024-01-10T07:33:42.208Z,41.90
2024-01-10T07:38:45.141Z,45.13
2024-01-10T07:43:47.017Z,35.80
2024-01-10T07:53:51.516Z,55.22
2024-01-10T07:58:53.707Z,62.72
2024-01-10T08:08:57.400Z,50.73
2024-01-10T08:13:59.518Z,48.05
2024-01-10T08:19:02.090Z,48.15
2024-01-10T08:24:04.579Z,46.83
2024-01-10T08:29:06.309Z,48.78
2024-01-10T08:34:08.085Z,52.95
2024-01-10T08:39:12.149Z,55.40
2024-01-10T08:44:14.542Z,50.33
2024-01-10T08:49:16.811Z,53.05
2024-01-10T08:54:20.901Z,52.17
2024-01-10T08:59:23.248Z,52.25
2024-01-10T09:04:26.897Z,48.55
2024-01-10T09:09:29.197Z,50.83
2024-01-10T09:14:30.995Z,49.55
2024-01-10T09:19:33.417Z,54.22
2024-01-10T09:24:36.464Z,47.63
2024-01-10T09:29:38.387Z,50.75
2024-01-10T09:34:40.481Z,49.72
2024-01-10T09:39:42.368Z,47.38
2024-01-10T09:44:46.635Z,48.88
2024-01-10T09:49:48.564Z,52.60
2024-01-10T09:54:55.522Z,52.75
2024-01-10T09:59:57.535Z,52.08
2024-01-10T10:10:13.404Z,48.88
2024-01-10T10:15:17.228Z,45.97
2024-01-10T10:20:25.791Z,45.97
2024-01-10T10:25:30.753Z,48.53
2024-01-10T10:30:35.270Z,46.70
2024-01-10T10:35:40.040Z,44.47
2024-01-10T10:40:44.329Z,44.72
2024-01-10T10:45:49.954Z,48.17
2024-01-10T10:51:05.430Z,49.67
2024-01-10T10:56:08.934Z,43.65
2024-01-10T11:01:13.483Z,47.45
2024-01-10T11:06:15.538Z,42.95
2024-01-10T11:11:27.578Z,51.83
2024-01-10T11:22:15.370Z,47.65
2024-01-10T11:32:26.664Z,48.73
2024-01-10T11:37:44.719Z,57.97
2024-01-10T11:42:47.189Z,49.28
2024-01-10T11:47:51.979Z,48.35
2024-01-10T11:52:55.006Z,47.25
2024-01-10T11:58:11.213Z,49.03
2024-01-10T12:03:13.841Z,51.92
2024-01-10T12:08:16.789Z,47.13
2024-01-10T12:13:27.229Z,46.60
2024-01-10T12:18:29.133Z,49.38
2024-01-10T12:23:32.939Z,48.38
2024-01-10T12:28:36.478Z,46.17
2024-01-10T12:33:38.888Z,51.60
2024-01-10T12:38:41.406Z,47.67
2024-01-10T12:43:44.304Z,50.47
2024-01-10T12:48:46.257Z,44.60
2024-01-10T12:53:48.060Z,47.45
2024-01-10T12:58:49.903Z,49.07
2024-01-10T13:03:52.106Z,49.13
2024-01-10T13:08:55.765Z,45.72
2024-01-10T13:13:57.752Z,46.45
2024-01-10T13:19:00.713Z,53.08
2024-01-10T13:24:03.558Z,50.13
2024-01-10T13:29:05.417Z,46.45
2024-01-10T13:34:08.189Z,41.35
2024-01-10T13:39:10.556Z,46.97
2024-01-10T13:44:12.395Z,48.70
2024-01-10T13:49:14.237Z,45.70
2024-01-10T13:54:16.231Z,45.78
2024-01-10T13:59:17.978Z,46.93
2024-01-10T14:04:20.533Z,49.35
2024-01-10T14:09:22.312Z,46.65
2024-01-10T14:14:26.451Z,44.80
2024-01-10T14:19:28.994Z,49.40
2024-01-10T14:24:31.042Z,51.50
2024-01-10T14:29:34.575Z,49.90
2024-01-10T14:34:36.485Z,43.35
2024-01-10T14:39:41.345Z,49.65
2024-01-10T14:44:43.390Z,53.10
2024-01-10T14:49:45.413Z,49.20
2024-01-10T14:54:47.608Z,50.38
2024-01-10T14:59:49.683Z,52.58
2024-01-10T15:04:51.789Z,56.88
2024-01-10T15:09:53.501Z,53.10
2024-01-10T15:14:55.792Z,57.07
2024-01-10T15:19:58.703Z,51.45
2024-01-10T15:30:15.542Z,55.65
2024-01-10T15:35:19.287Z,52.67
2024-01-10T15:40:21.045Z,56.22
2024-01-10T15:45:22.777Z,53.73
2024-01-10T15:50:24.738Z,55.10
2024-01-10T15:55:28.364Z,55.78
2024-01-10T16:00:30.100Z,70.10
2024-01-10T16:05:31.955Z,74.07
2024-01-10T16:10:34.241Z,68.45
2024-01-10T16:15:36.017Z,71.05
2024-01-10T16:20:39.516Z,59.78
2024-01-10T16:25:41.958Z,58.47
2024-01-10T16:30:44.101Z,71.55
2024-01-10T16:35:46.943Z,68.63
2024-01-10T16:40:48.671Z,66.35
2024-01-10T16:45:50.448Z,63.90
2024-01-10T16:50:52.607Z,64.90
2024-01-10T16:55:54.878Z,66.05
2024-01-10T17:00:58.203Z,66.07
2024-01-10T17:06:00.990Z,63.28
2024-01-10T17:11:06.070Z,67.00
2024-01-10T17:16:08.218Z,65.40
2024-01-10T17:21:10.578Z,65.38
2024-01-10T17:26:13.166Z,69.82
2024-01-10T17:31:15.335Z,64.28
2024-01-10T17:36:17.083Z,66.82
2024-01-10T17:41:19.603Z,71.90
2024-01-10T17:46:21.872Z,66.78
2024-01-10T17:51:25.897Z,72.72
2024-01-10T17:56:27.682Z,71.68
2024-01-10T18:01:29.628Z,72.97
2024-01-10T18:06:31.467Z,65.00
2024-01-10T18:11:33.594Z,67.32
2024-01-10T18:16:35.667Z,64.10
2024-01-10T18:21:37.340Z,61.00
2024-01-10T18:26:39.155Z,70.47
2024-01-10T18:31:41.012Z,73.22
2024-01-10T18:36:42.856Z,72.10
2024-01-10T18:41:45.028Z,69.70
2024-01-10T18:51:49.026Z,75.47
2024-01-10T18:56:51.626Z,74.75
2024-01-10T19:01:53.641Z,76.30
2024-01-10T19:06:57.320Z,77.72
2024-01-10T19:11:59.112Z,75.30
2024-01-10T19:17:01.085Z,74.38
2024-01-10T19:22:05.718Z,70.78
2024-01-10T19:27:08.756Z,70.95
2024-01-10T19:32:11.354Z,84.10
2024-01-10T19:37:13.412Z,72.45
2024-01-10T19:42:15.144Z,68.80
2024-01-10T19:47:16.894Z,64.80
2024-01-10T19:52:18.790Z,82.05
2024-01-10T19:57:20.466Z,69.60
2024-01-10T20:02:24.559Z,69.90
2024-01-10T20:07:26.375Z,69.85
2024-01-10T20:12:28.349Z,76.55
2024-01-10T20:17:30.161Z,70.80
2024-01-10T20:22:32.733Z,74.65
2024-01-10T20:27:35.521Z,73.63
2024-01-10T20:32:38.843Z,71.82
2024-01-10T20:37:41.687Z,66.68
2024-01-10T20:42:43.915Z,67.55
2024-01-10T20:47:46.837Z,74.13
2024-01-10T20:52:49.057Z,73.25
2024-01-10T20:57:54.417Z,69.13
2024-01-10T21:02:57.051Z,69.75
2024-01-10T21:07:59.423Z,67.90
2024-01-10T21:18:03.146Z,70.27
2024-01-10T21:23:05.326Z,68.68
2024-01-10T21:28:10.006Z,69.57
2024-01-10T21:33:12.323Z,77.00
2024-01-10T21:38:15.252Z,66.93
2024-01-10T21:43:17.018Z,66.38
2024-01-10T21:48:19.472Z,69.45
2024-01-10T21:53:21.788Z,65.05
2024-01-10T21:58:25.920Z,73.38
2024-01-10T22:03:35.464Z,75.18
2024-01-10T22:08:39.242Z,74.13
2024-01-10T22:13:41.681Z,74.40
2024-01-10T22:18:43.904Z,69.32
2024-01-10T22:23:45.904Z,75.40
2024-01-10T22:28:47.718Z,72.30
2024-01-10T22:33:49.631Z,69.18
2024-01-10T22:38:52.415Z,69.30
2024-01-10T22:43:54.512Z,67.80
2024-01-10T22:48:57.970Z,69.88
2024-01-10T22:54:00.571Z,73.15
2024-01-10T23:04:04.289Z,69.13
2024-01-10T23:09:06.109Z,75.32
2024-01-10T23:19:10.458Z,68.53
2024-01-10T23:24:12.311Z,68.00
2024-01-10T23:29:14.112Z,72.53
2024-01-10T23:34:15.989Z,77.78
2024-01-10T23:39:17.926Z,81.55
2024-01-10T23:44:19.680Z,74.40
2024-01-10T23:49:21.450Z,71.78
2024-01-10T23:54:23.275Z,75.22
2024-01-10T23:59:25.158Z,87.43
